»·PEaware :: SWA1419 KSNA-KLAS

SWA1419 :: KSNA-KLAS

FLIGHT INFORMATION

Flight Status: Arrived
Operator:
Southwest Airlines
More flights by this operator :: More flights under this callsign
Pilot: Cody B. (17747)
Aircraft: BOEING 737-800
(B738)
More flights by this aircraft type
Origin: KSNA John Wayne-Orange Co
United States
Destination: KLAS McCarran Intl
United States
More flights between these airports :: More routes between these airports
Route: +FINZZ2 MISEN KEPEC6
File this flight plan on PilotEdge
Remarks:
Altitude:
(Current/Filed)
29,000ft
Speed:
(Current/Filed)
444kts
Departed: 22-Jun-18 12:17 PM
Arrived: 22-Jun-18 01:06 PM
Distance/Time
Traveled:
197nm/0:49
Distance/Time
To Go:
Arrived

Flight Plot

Page will automatically refresh every two minutes.

Flight plan parsing failed; only flown route is shown


Map Options




Map Legend


Flown Route
Filed Route
Departure Airport
Arrival Airport
Navaid (VOR, NDB)
Fix

Horizontal Profiles

Position Reports

Time Latitude Longitude Heading Altitude Ground
Speed
22-Jun-18 10:32 33.676456 -117.864224 117 64ft 0kts
22-Jun-18 10:33 33.676456 -117.864224 117 64ft 0kts
22-Jun-18 10:34 33.676456 -117.864224 117 64ft 0kts
22-Jun-18 10:35 33.676456 -117.864224 117 64ft 0kts
22-Jun-18 10:36 33.676456 -117.864224 117 64ft 0kts
22-Jun-18 10:37 33.676456 -117.864224 117 64ft 0kts
22-Jun-18 10:38 33.676456 -117.864224 117 64ft 0kts
22-Jun-18 10:39 33.676456 -117.864224 117 64ft 0kts
22-Jun-18 10:40 33.676456 -117.864224 117 64ft 0kts
22-Jun-18 10:41 33.676456 -117.864224 117 64ft 0kts
22-Jun-18 10:42 33.676456 -117.864224 117 64ft 0kts
22-Jun-18 10:47 33.676456 -117.864224 117 64ft 0kts
22-Jun-18 10:48 33.676456 -117.864224 117 64ft 0kts
22-Jun-18 10:49 33.676456 -117.864224 117 64ft 0kts
22-Jun-18 10:50 33.676456 -117.864224 117 64ft 0kts
22-Jun-18 10:51 33.676456 -117.864223 117 64ft 0kts
22-Jun-18 10:52 33.676456 -117.864223 117 64ft 0kts
22-Jun-18 10:53 33.676456 -117.864224 117 64ft 0kts
22-Jun-18 10:54 33.676456 -117.864224 117 64ft 0kts
22-Jun-18 10:58 33.676456 -117.864224 117 64ft 0kts
22-Jun-18 11:07 33.676093 -117.864411 117 64ft 0kts
22-Jun-18 11:08 33.676456 -117.864224 117 64ft 0kts
22-Jun-18 11:09 33.676456 -117.864224 117 64ft 0kts
22-Jun-18 11:10 33.676093 -117.864411 117 64ft 0kts
22-Jun-18 11:11 33.676094 -117.864411 117 64ft 0kts
22-Jun-18 11:12 33.676094 -117.864411 117 64ft 0kts
22-Jun-18 11:13 33.676094 -117.864411 117 64ft 0kts
22-Jun-18 11:14 33.676094 -117.864411 117 64ft 0kts
22-Jun-18 11:15 33.676094 -117.864411 117 64ft 0kts
22-Jun-18 11:16 33.676093 -117.864411 117 64ft 0kts
22-Jun-18 11:25 33.676456 -117.864224 117 64ft 0kts
22-Jun-18 11:26 33.676456 -117.864224 117 64ft 0kts
22-Jun-18 11:27 33.676094 -117.864411 117 64ft 0kts
22-Jun-18 11:28 33.676094 -117.864411 117 64ft 0kts
22-Jun-18 11:29 33.676094 -117.864411 117 64ft 0kts
22-Jun-18 11:30 33.676094 -117.864411 117 64ft 0kts
22-Jun-18 11:31 33.676094 -117.864411 117 64ft 0kts
22-Jun-18 11:32 33.676094 -117.864411 117 64ft 0kts
22-Jun-18 11:33 33.676094 -117.864411 117 64ft 0kts
22-Jun-18 11:34 33.676456 -117.864224 117 64ft 0kts
22-Jun-18 11:35 33.676456 -117.864224 117 64ft 0kts
22-Jun-18 11:36 33.676456 -117.864224 117 64ft 0kts
22-Jun-18 11:37 33.676456 -117.864224 117 64ft 0kts
22-Jun-18 11:38 33.676456 -117.864224 117 64ft 0kts
22-Jun-18 11:39 33.676456 -117.864224 117 64ft 0kts
22-Jun-18 11:40 33.676456 -117.864224 117 64ft 0kts
22-Jun-18 11:41 33.676456 -117.864224 117 64ft 0kts
22-Jun-18 11:42 33.676456 -117.864224 117 64ft 0kts
22-Jun-18 11:43 33.676456 -117.864224 117 64ft 0kts
22-Jun-18 11:44 33.676456 -117.864223 117 64ft 0kts
22-Jun-18 11:45 33.676456 -117.864223 117 64ft 0kts
22-Jun-18 11:46 33.676456 -117.864224 117 64ft 0kts
22-Jun-18 11:47 33.676456 -117.864224 117 64ft 0kts
22-Jun-18 11:48 33.676456 -117.864224 117 64ft 0kts
22-Jun-18 11:49 33.676456 -117.864224 117 64ft 0kts
22-Jun-18 11:50 33.676456 -117.864224 117 64ft 0kts
22-Jun-18 11:51 33.676456 -117.864224 117 64ft 0kts
22-Jun-18 11:52 33.676456 -117.864224 117 64ft 0kts
22-Jun-18 11:53 33.676456 -117.864224 117 64ft 0kts
22-Jun-18 11:54 33.676456 -117.864224 117 64ft 0kts
22-Jun-18 11:55 33.676456 -117.864224 117 64ft 0kts
22-Jun-18 11:56 33.676456 -117.864224 117 64ft 0kts
22-Jun-18 11:57 33.676456 -117.864224 117 64ft 0kts
22-Jun-18 11:58 33.676456 -117.864224 117 64ft 0kts
22-Jun-18 11:59 33.676456 -117.864224 117 64ft 0kts
22-Jun-18 12:00 33.676456 -117.864224 117 64ft 0kts
22-Jun-18 12:01 33.676456 -117.864224 117 64ft 0kts
22-Jun-18 12:02 33.676456 -117.864224 117 64ft 0kts
22-Jun-18 12:03 33.676516 -117.864432 97 64ft 2kts
22-Jun-18 12:04 33.676317 -117.865070 39 64ft 2kts
22-Jun-18 12:05 33.676106 -117.865254 98 64ft 0kts
22-Jun-18 12:06 33.676113 -117.865304 77 64ft 1kts
22-Jun-18 12:07 33.675662 -117.865497 24 64ft 1kts
22-Jun-18 12:08 33.675611 -117.865529 26 64ft 0kts
22-Jun-18 12:09 33.675611 -117.865529 26 64ft 0kts
22-Jun-18 12:10 33.675611 -117.865529 26 64ft 0kts
22-Jun-18 12:11 33.675785 -117.865424 26 64ft 2kts
22-Jun-18 12:12 33.676432 -117.865016 27 64ft 5kts
22-Jun-18 12:13 33.679129 -117.863304 27 64ft 13kts
22-Jun-18 12:14 33.680651 -117.863098 299 64ft 0kts
22-Jun-18 12:15 33.681187 -117.864286 297 64ft 10kts
22-Jun-18 12:16 33.681439 -117.865171 208 64ft 0kts
22-Jun-18 12:17 33.655670 -117.881832 208 798ft 179kts
22-Jun-18 12:18 33.606348 -117.899419 181 2382ft 214kts
22-Jun-18 12:19 33.544739 -117.931207 224 4699ft 272kts
22-Jun-18 12:20 33.502487 -118.002261 278 7852ft 276kts
22-Jun-18 12:21 33.542751 -118.077986 311 7991ft 276kts
22-Jun-18 12:22 33.608418 -118.110751 15 8650ft 295kts
22-Jun-18 12:23 33.683689 -118.072280 22 10977ft 326kts
22-Jun-18 12:24 33.766013 -118.025132 23 13703ft 341kts
22-Jun-18 12:25 33.850698 -117.975980 23 16437ft 353kts
22-Jun-18 12:26 33.937097 -117.916396 34 18058ft 366kts
22-Jun-18 12:27 34.017800 -117.842662 34 20332ft 378kts
22-Jun-18 12:28 34.099901 -117.763006 46 22339ft 394kts
22-Jun-18 12:29 34.169205 -117.660879 48 24143ft 407kts
22-Jun-18 12:30 34.240901 -117.553890 48 25889ft 417kts
22-Jun-18 12:31 34.314447 -117.443945 48 27536ft 425kts
22-Jun-18 12:32 34.388449 -117.333048 48 28975ft 434kts
22-Jun-18 12:33 34.466527 -117.215880 48 29046ft 468kts
22-Jun-18 12:34 34.549371 -117.091251 47 29035ft 478kts
22-Jun-18 12:35 34.634365 -116.967307 47 28955ft 478kts
22-Jun-18 12:36 34.718952 -116.843251 47 28954ft 479kts
22-Jun-18 12:37 34.803576 -116.719163 47 28952ft 475kts
22-Jun-18 12:38 34.894536 -116.604156 35 28955ft 471kts
22-Jun-18 12:39 34.995745 -116.506161 35 26720ft 447kts
22-Jun-18 12:40 35.087246 -116.417215 34 24368ft 406kts
22-Jun-18 12:41 35.166537 -116.323322 43 22750ft 404kts
22-Jun-18 12:42 35.243769 -116.226455 43 21272ft 394kts
22-Jun-18 12:43 35.319308 -116.131302 43 19828ft 386kts
22-Jun-18 12:44 35.393228 -116.038058 43 18405ft 378kts
22-Jun-18 12:45 35.465344 -115.946825 43 17080ft 370kts
22-Jun-18 12:46 35.535711 -115.857544 43 15725ft 361kts
22-Jun-18 12:47 35.604576 -115.769934 43 14408ft 352kts
22-Jun-18 12:48 35.669646 -115.686952 43 13154ft 324kts
22-Jun-18 12:49 35.729331 -115.610658 43 13045ft 309kts
22-Jun-18 12:50 35.804628 -115.573976 0 13044ft 300kts
22-Jun-18 12:51 35.887769 -115.569054 0 13044ft 299kts
22-Jun-18 12:52 35.966567 -115.543764 42 12855ft 314kts
22-Jun-18 12:53 36.005167 -115.450923 65 11822ft 292kts
22-Jun-18 12:54 36.028364 -115.358551 89 10839ft 279kts
22-Jun-18 12:55 36.022390 -115.264897 93 9716ft 273kts
22-Jun-18 12:56 36.015822 -115.171579 92 8788ft 268kts
22-Jun-18 12:57 36.009897 -115.084180 93 8077ft 247kts
22-Jun-18 12:58 36.001751 -114.998976 94 7380ft 253kts
22-Jun-18 12:59 35.993214 -114.911731 94 6096ft 256kts
22-Jun-18 13:00 36.011554 -114.843557 357 4995ft 220kts
22-Jun-18 13:01 36.043746 -114.900194 291 4972ft 211kts
22-Jun-18 13:02 36.062702 -114.968781 292 4502ft 208kts
22-Jun-18 13:03 36.073833 -115.034262 268 3657ft 182kts
22-Jun-18 13:04 36.073491 -115.093768 273 2579ft 160kts
22-Jun-18 13:05 36.073627 -115.139375 270 2083ft 51kts
22-Jun-18 13:06 36.074201 -115.144750 294 2100ft 5kts
22-Jun-18 13:07 36.074567 -115.145686 297 2102ft 0kts
22-Jun-18 13:08 36.075572 -115.146556 1 2104ft 10kts
22-Jun-18 13:09 36.077779 -115.147540 277 2104ft 10kts
22-Jun-18 13:10 36.079300 -115.147544 334 2100ft 6kts
22-Jun-18 13:11 36.079923 -115.147123 58 2096ft 0kts
22-Jun-18 13:12 36.079923 -115.147124 58 2096ft 0kts
22-Jun-18 13:13 36.079923 -115.147124 58 2096ft 0kts
22-Jun-18 13:14 36.079923 -115.147124 58 2096ft 0kts
22-Jun-18 13:15 36.079923 -115.147124 58 2096ft 0kts
22-Jun-18 13:16 36.079923 -115.147124 58 2096ft 0kts
22-Jun-18 13:17 36.079923 -115.147124 58 2096ft 0kts
22-Jun-18 13:18 36.079923 -115.147124 58 2096ft 0kts

Navigation Log

Ident Type
Flight plan parsing failed, navigation log unavailable